Time;durP1;ratioP1;P1;durP2;ratioP2;P2;SDS_P1;SDS_P2;PMS_P1;PMS_P2;Temp;Humidity;BMP_temperature;BMP_pressure;BME280_temperature;BME280_humidity;BME280_pressure;Samples;Min_cycle;Max_cycle;Signal;HPM_P1;HPM_P2
2022/07/06 00:01:32;;;;;;;3.50;0.95;;;15.50;65.50;;;;;;5079183;28;20031;-36
2022/07/06 00:03:57;;;;;;;2.80;0.98;;;15.50;65.60;;;;;;5078982;28;20424;-37
2022/07/06 00:06:23;;;;;;;2.85;0.98;;;15.50;65.70;;;;;;5079107;28;20119;-36
2022/07/06 00:08:49;;;;;;;3.38;0.90;;;15.50;65.80;;;;;;5079632;28;20048;-36
2022/07/06 00:11:15;;;;;;;1.88;0.90;;;15.40;65.90;;;;;;5079238;28;20016;-37
2022/07/06 00:13:41;;;;;;;2.92;1.00;;;15.40;66.10;;;;;;5079286;28;20020;-36
2022/07/06 00:16:07;;;;;;;2.20;0.98;;;15.40;66.20;;;;;;5079549;28;20357;-37
2022/07/06 00:18:33;;;;;;;2.33;0.75;;;15.40;66.30;;;;;;5079530;28;20153;-37
2022/07/06 00:20:58;;;;;;;2.10;0.82;;;15.40;66.40;;;;;;5079236;28;20020;-37
2022/07/06 00:23:24;;;;;;;1.77;0.80;;;15.40;66.60;;;;;;5079227;28;20046;-37
2022/07/06 00:25:50;;;;;;;3.38;0.85;;;15.30;66.70;;;;;;5077723;28;20024;-36
2022/07/06 00:28:15;;;;;;;1.85;0.90;;;15.30;66.80;;;;;;5079564;28;20074;-37
2022/07/06 00:30:41;;;;;;;2.25;1.05;;;15.20;66.90;;;;;;5079426;28;20024;-35
2022/07/06 00:33:07;;;;;;;2.05;0.90;;;15.20;67.00;;;;;;5079090;28;20059;-37
2022/07/06 00:35:32;;;;;;;2.85;1.00;;;15.20;67.10;;;;;;5079299;28;20033;-37
2022/07/06 00:37:58;;;;;;;2.97;1.20;;;15.20;67.30;;;;;;5079283;28;20089;-37
2022/07/06 00:40:24;;;;;;;2.97;0.95;;;15.10;67.30;;;;;;5079010;28;20475;-36
2022/07/06 00:42:49;;;;;;;1.92;0.80;;;15.10;67.50;;;;;;5078997;28;20060;-36
2022/07/06 00:45:16;;;;;;;2.80;0.85;;;15.10;67.60;;;;;;5079113;28;20024;-36
2022/07/06 00:47:42;;;;;;;1.83;0.88;;;15.10;67.80;;;;;;5079161;28;20064;-36
2022/07/06 00:50:43;;;;;;;1.63;1.10;;;15.10;67.80;;;;;;5079396;28;20028;-37
2022/07/06 00:53:05;;;;;;;3.47;0.80;;;15.10;67.90;;;;;;5078782;28;20036;-36
2022/07/06 00:55:33;;;;;;;4.07;0.90;;;15.10;68.00;;;;;;5077638;28;20108;-37
2022/07/06 00:58:02;;;;;;;2.97;1.00;;;15.10;68.00;;;;;;5078940;28;20024;-37
2022/07/06 01:00:28;;;;;;;2.22;1.05;;;15.00;68.00;;;;;;5076456;28;20048;-37
2022/07/06 01:05:22;;;;;;;3.03;0.90;;;15.00;68.20;;;;;;5014839;28;20057;-37
2022/07/06 01:07:49;;;;;;;2.92;1.00;;;15.00;68.30;;;;;;5015635;28;20519;-36
2022/07/06 01:10:17;;;;;;;2.20;1.02;;;15.00;68.30;;;;;;5015812;28;20022;-36
2022/07/06 01:12:44;;;;;;;1.73;1.08;;;15.00;68.40;;;;;;5015996;28;20025;-37
2022/07/06 01:15:29;;;;;;;4.43;0.95;;;15.00;68.50;;;;;;5014075;28;20389;-38
2022/07/06 01:17:55;;;;;;;1.23;0.82;;;15.00;68.60;;;;;;5015222;28;20030;-36
2022/07/06 01:20:23;;;;;;;1.98;1.00;;;14.90;68.60;;;;;;5015285;28;20461;-38
2022/07/06 01:22:50;;;;;;;1.08;0.90;;;14.90;68.80;;;;;;5015642;28;20476;-38
2022/07/06 01:25:17;;;;;;;4.05;1.02;;;14.90;69.00;;;;;;5015500;28;20022;-38
2022/07/06 01:27:42;;;;;;;4.47;1.10;;;14.80;69.00;;;;;;5015199;28;20036;-38
2022/07/06 01:30:11;;;;;;;2.05;1.15;;;14.80;69.20;;;;;;5015246;28;20104;-36
2022/07/06 01:32:37;;;;;;;3.25;0.90;;;14.80;69.30;;;;;;5015430;28;20030;-38
2022/07/06 01:35:04;;;;;;;2.25;1.00;;;14.80;69.40;;;;;;5015431;28;20080;-38
2022/07/06 01:37:30;;;;;;;5.28;1.10;;;14.80;69.40;;;;;;5015068;28;20057;-37
2022/07/06 01:40:00;;;;;;;3.72;0.80;;;14.80;69.40;;;;;;5014885;28;20065;-37
2022/07/06 01:42:26;;;;;;;2.45;0.80;;;14.80;69.50;;;;;;5014825;28;20084;-38
2022/07/06 01:44:52;;;;;;;5.60;1.00;;;14.70;69.50;;;;;;5015033;28;20018;-36
2022/07/06 01:47:17;;;;;;;2.25;1.00;;;14.80;69.60;;;;;;5015008;28;20030;-38
2022/07/06 01:49:43;;;;;;;2.50;1.00;;;14.70;69.60;;;;;;5014886;28;20026;-42
2022/07/06 01:52:08;;;;;;;3.78;0.90;;;14.70;69.60;;;;;;5014901;28;20047;-37
2022/07/06 01:54:34;;;;;;;2.03;1.00;;;14.70;69.70;;;;;;5014502;28;20026;-37
2022/07/06 01:56:59;;;;;;;4.07;1.10;;;14.70;69.70;;;;;;5014534;28;20026;-37
2022/07/06 01:59:25;;;;;;;1.15;0.70;;;14.80;69.80;;;;;;5014470;28;20033;-38
2022/07/06 02:01:51;;;;;;;1.75;0.88;;;14.70;69.80;;;;;;5014293;28;20029;-36
2022/07/06 02:04:16;;;;;;;4.50;0.90;;;14.70;69.90;;;;;;5014096;28;20416;-38
2022/07/06 02:06:42;;;;;;;2.88;1.10;;;14.70;69.90;;;;;;5014229;28;20104;-38
2022/07/06 02:09:07;;;;;;;1.13;0.90;;;14.60;70.00;;;;;;5012892;28;20018;-37
2022/07/06 02:11:33;;;;;;;3.53;1.10;;;14.70;70.30;;;;;;5013949;28;20014;-37
2022/07/06 02:13:58;;;;;;;3.22;0.95;;;14.50;70.20;;;;;;5014063;28;20025;-36
2022/07/06 02:16:24;;;;;;;2.20;0.77;;;14.60;70.40;;;;;;5014469;28;20050;-38
2022/07/06 02:18:50;;;;;;;1.35;0.90;;;14.50;70.40;;;;;;5014141;28;20026;-37
2022/07/06 02:21:15;;;;;;;2.35;1.10;;;14.50;70.50;;;;;;5013986;28;20065;-37
2022/07/06 02:23:41;;;;;;;3.05;1.17;;;14.50;70.60;;;;;;5014086;28;20022;-37
2022/07/06 02:26:07;;;;;;;2.72;1.00;;;14.40;70.60;;;;;;5013980;28;20033;-38
2022/07/06 02:28:32;;;;;;;2.20;0.82;;;14.40;70.60;;;;;;5014423;28;20389;-41
2022/07/06 02:30:58;;;;;;;6.28;0.95;;;14.50;70.70;;;;;;5013993;28;20022;-38
2022/07/06 02:33:24;;;;;;;3.33;1.00;;;14.50;70.80;;;;;;5014449;28;20022;-36
2022/07/06 02:35:49;;;;;;;4.22;1.05;;;14.50;70.80;;;;;;5014264;28;20357;-38
2022/07/06 02:38:15;;;;;;;1.92;0.98;;;14.50;70.80;;;;;;5014195;28;20388;-38
2022/07/06 02:40:40;;;;;;;3.03;0.90;;;14.50;70.80;;;;;;5013856;28;20029;-38
2022/07/06 02:43:06;;;;;;;1.00;0.82;;;14.40;70.70;;;;;;5013855;28;20057;-38
2022/07/06 02:45:31;;;;;;;1.67;1.00;;;14.50;70.80;;;;;;5014035;28;20022;-38
2022/07/06 02:47:57;;;;;;;1.10;0.77;;;14.40;70.80;;;;;;5013767;28;20026;-36
2022/07/06 02:50:23;;;;;;;2.88;0.82;;;14.40;70.80;;;;;;5013741;28;20022;-37
2022/07/06 02:52:49;;;;;;;2.08;0.80;;;14.40;70.90;;;;;;5013687;28;20022;-37
2022/07/06 02:55:14;;;;;;;3.55;1.08;;;14.40;71.00;;;;;;5013692;28;20022;-37
2022/07/06 02:57:40;;;;;;;0.90;0.77;;;14.40;71.10;;;;;;5014157;28;20561;-43
2022/07/06 03:00:07;;;;;;;3.80;0.90;;;14.30;71.00;;;;;;5013646;28;20099;-36
2022/07/06 03:02:33;;;;;;;2.47;0.75;;;14.40;71.10;;;;;;5013684;28;20116;-38
2022/07/06 03:04:58;;;;;;;2.95;0.90;;;14.30;71.00;;;;;;5013396;28;20553;-38
2022/07/06 03:07:24;;;;;;;2.28;0.80;;;14.40;71.10;;;;;;5013591;28;20515;-38
2022/07/06 03:09:49;;;;;;;1.65;0.82;;;14.40;71.20;;;;;;5013988;28;20475;-37
2022/07/06 03:12:15;;;;;;;2.45;0.80;;;14.40;71.20;;;;;;5013395;28;20477;-37
2022/07/06 03:14:41;;;;;;;2.53;0.77;;;14.30;71.80;;;;;;5014046;28;20030;-37
2022/07/06 03:17:07;;;;;;;2.45;0.80;;;14.30;71.10;;;;;;5013274;28;20103;-37
2022/07/06 03:19:33;;;;;;;2.22;0.90;;;14.40;71.20;;;;;;5013353;28;20499;-37
2022/07/06 03:21:58;;;;;;;3.00;0.80;;;14.40;71.80;;;;;;5013410;28;20037;-35
2022/07/06 03:24:24;;;;;;;3.53;0.95;;;14.40;71.20;;;;;;5013168;28;20079;-38
2022/07/06 03:26:49;;;;;;;3.58;0.98;;;14.40;71.10;;;;;;5011806;28;20388;-37
2022/07/06 03:29:15;;;;;;;1.73;0.95;;;14.50;71.00;;;;;;5013835;28;20029;-38
2022/07/06 03:31:41;;;;;;;1.65;0.70;;;14.50;71.00;;;;;;5013114;28;20022;-38
2022/07/06 03:34:07;;;;;;;1.85;0.80;;;14.50;70.90;;;;;;5011777;28;20072;-37
2022/07/06 03:36:32;;;;;;;3.30;1.25;;;14.60;70.90;;;;;;5013149;28;20030;-37
2022/07/06 03:38:58;;;;;;;2.15;0.60;;;14.60;70.80;;;;;;5013054;28;20425;-37
2022/07/06 03:41:23;;;;;;;3.10;0.85;;;14.70;70.80;;;;;;5013415;28;20432;-37
2022/07/06 03:43:49;;;;;;;2.42;0.70;;;14.70;70.70;;;;;;5013043;28;20061;-38
2022/07/06 03:46:14;;;;;;;4.85;0.82;;;14.70;70.60;;;;;;5012995;28;20026;-38
2022/07/06 03:48:40;;;;;;;2.08;0.85;;;14.70;70.60;;;;;;5013651;28;20089;-37
2022/07/06 03:51:06;;;;;;;1.30;0.55;;;14.70;70.60;;;;;;5013143;28;20033;-36
2022/07/06 03:53:32;;;;;;;1.98;0.68;;;14.70;70.60;;;;;;5013375;28;20033;-37
2022/07/06 03:58:42;;;;;;;2.00;0.80;;;14.80;70.50;;;;;;5013232;28;20077;-37
2022/07/06 04:01:07;;;;;;;2.83;0.70;;;14.80;70.50;;;;;;5013084;28;20414;-37
2022/07/06 04:03:33;;;;;;;3.03;0.80;;;14.80;70.40;;;;;;5012869;28;20045;-38
2022/07/06 04:05:58;;;;;;;1.45;0.75;;;14.80;70.40;;;;;;5012751;28;20030;-36
2022/07/06 04:08:24;;;;;;;2.65;0.90;;;14.90;70.40;;;;;;5012937;28;20093;-38
2022/07/06 04:10:50;;;;;;;1.25;0.70;;;14.90;70.30;;;;;;5012781;28;20014;-37
2022/07/06 04:13:15;;;;;;;2.83;0.88;;;15.00;70.40;;;;;;5012943;28;20046;-38
2022/07/06 04:15:41;;;;;;;5.10;1.10;;;15.00;70.40;;;;;;5012730;28;20462;-38
2022/07/06 04:18:07;;;;;;;1.88;1.00;;;14.90;70.40;;;;;;5011315;28;20088;-38
2022/07/06 04:20:32;;;;;;;1.52;0.70;;;14.90;70.40;;;;;;5012793;28;20042;-37
2022/07/06 04:22:58;;;;;;;1.88;0.93;;;14.90;70.50;;;;;;5012601;28;20030;-37
2022/07/06 04:25:24;;;;;;;2.00;0.80;;;14.80;70.50;;;;;;5012947;28;20427;-38
2022/07/06 04:27:49;;;;;;;2.45;0.90;;;14.90;70.50;;;;;;5012602;28;20030;-38
2022/07/06 04:30:15;;;;;;;2.92;0.90;;;14.80;70.50;;;;;;5012453;28;20384;-37
2022/07/06 04:32:41;;;;;;;2.78;0.88;;;14.80;70.60;;;;;;5012838;28;20014;-38
2022/07/06 04:35:07;;;;;;;1.20;0.80;;;14.80;70.60;;;;;;5013072;28;20106;-37
2022/07/06 04:37:32;;;;;;;2.13;1.00;;;14.90;70.60;;;;;;5016233;28;20457;-38
2022/07/06 04:39:58;;;;;;;2.15;0.80;;;14.90;70.60;;;;;;5016282;28;20018;-40
2022/07/06 04:42:24;;;;;;;3.72;0.80;;;14.90;70.60;;;;;;5016374;28;20026;-37
2022/07/06 04:44:51;;;;;;;2.00;0.80;;;14.90;70.60;;;;;;5016328;28;20499;-37
2022/07/06 04:47:17;;;;;;;1.83;0.80;;;14.90;70.60;;;;;;5016329;28;20121;-37
2022/07/06 04:49:43;;;;;;;1.55;0.70;;;15.00;70.60;;;;;;5016160;28;20480;-37
2022/07/06 04:52:08;;;;;;;1.85;0.70;;;15.10;70.50;;;;;;5016060;28;20369;-36
2022/07/06 04:54:34;;;;;;;3.17;0.80;;;15.10;70.40;;;;;;5014845;28;20014;-37
2022/07/06 04:56:59;;;;;;;2.45;0.70;;;15.10;70.40;;;;;;5016387;28;20460;-43
2022/07/06 04:59:25;;;;;;;3.08;0.90;;;15.20;70.30;;;;;;5016417;28;20388;-36
2022/07/06 05:01:51;;;;;;;2.30;0.82;;;15.30;70.30;;;;;;5016171;28;20045;-37
2022/07/06 05:04:19;;;;;;;2.92;0.93;;;15.30;70.20;;;;;;5015721;28;20397;-37
2022/07/06 05:06:46;;;;;;;1.83;1.10;;;15.30;70.20;;;;;;5015988;28;20066;-38
2022/07/06 05:09:12;;;;;;;3.78;0.88;;;15.30;70.20;;;;;;5016155;28;20549;-38
2022/07/06 05:11:38;;;;;;;2.53;0.90;;;15.30;70.20;;;;;;5016239;28;20413;-46
2022/07/06 05:14:04;;;;;;;2.95;0.85;;;15.30;70.30;;;;;;5014434;28;20146;-36
2022/07/06 05:16:30;;;;;;;2.35;0.90;;;15.30;70.40;;;;;;5015824;28;20026;-37
2022/07/06 05:18:55;;;;;;;1.70;0.60;;;15.30;70.40;;;;;;5015628;28;20180;-37
2022/07/06 05:21:21;;;;;;;1.45;0.70;;;15.30;70.50;;;;;;5015706;28;20022;-37
2022/07/06 05:23:47;;;;;;;1.33;0.50;;;15.30;70.50;;;;;;5015260;28;20385;-38
2022/07/06 05:26:12;;;;;;;1.35;0.70;;;15.30;70.60;;;;;;5013799;28;20034;-37
2022/07/06 05:28:38;;;;;;;2.60;0.73;;;15.30;70.50;;;;;;5015241;28;20026;-37
2022/07/06 05:31:04;;;;;;;1.55;0.70;;;15.40;70.60;;;;;;5015266;28;20096;-35
2022/07/06 05:33:29;;;;;;;1.75;0.70;;;15.40;70.60;;;;;;5015237;28;20153;-37
2022/07/06 05:35:55;;;;;;;0.93;0.60;;;15.40;70.50;;;;;;5014952;28;20030;-38
2022/07/06 05:38:21;;;;;;;1.13;0.70;;;15.50;70.40;;;;;;5015166;28;20049;-38
2022/07/06 05:40:46;;;;;;;2.90;0.70;;;15.60;70.30;;;;;;5015123;28;20388;-38
2022/07/06 05:43:12;;;;;;;1.10;0.50;;;15.70;70.20;;;;;;5014884;28;20049;-37
2022/07/06 05:45:38;;;;;;;2.10;0.60;;;15.80;70.00;;;;;;5014847;28;20025;-37
2022/07/06 05:50:48;;;;;;;1.90;0.77;;;15.90;69.70;;;;;;5014874;28;20041;-38
2022/07/06 05:53:13;;;;;;;1.45;0.68;;;16.00;69.60;;;;;;5014881;28;20030;-38
2022/07/06 05:55:39;;;;;;;3.10;0.70;;;16.10;69.50;;;;;;5014685;28;20026;-39
2022/07/06 05:58:05;;;;;;;3.25;0.80;;;16.10;69.50;;;;;;5014711;28;20030;-37
2022/07/06 06:00:31;;;;;;;2.20;0.75;;;16.10;69.40;;;;;;5014553;28;20038;-38
2022/07/06 06:02:58;;;;;;;0.85;0.50;;;16.10;69.30;;;;;;5014386;28;20057;-36
2022/07/06 06:05:24;;;;;;;0.90;0.40;;;16.10;69.30;;;;;;5013564;28;20061;-38
2022/07/06 06:07:51;;;;;;;2.00;0.60;;;16.10;69.30;;;;;;5014531;28;20172;-38
2022/07/06 06:10:17;;;;;;;5.18;0.90;;;16.10;69.30;;;;;;5014339;28;20156;-38
2022/07/06 06:12:44;;;;;;;2.42;0.75;;;16.10;69.40;;;;;;5014471;28;20443;-38
2022/07/06 06:15:10;;;;;;;3.08;1.05;;;16.10;69.40;;;;;;5014542;28;20096;-39
2022/07/06 06:17:37;;;;;;;4.20;0.70;;;16.10;69.50;;;;;;5013075;28;20468;-38
2022/07/06 06:20:06;;;;;;;1.25;0.65;;;16.20;69.50;;;;;;5014238;28;20022;-43
2022/07/06 06:22:43;;;;;;;1.65;0.70;;;16.20;69.40;;;;;;5014502;28;20055;-38
2022/07/06 06:25:09;;;;;;;1.02;0.50;;;16.20;69.30;;;;;;5014117;28;20033;-46
2022/07/06 06:27:34;;;;;;;1.35;0.55;;;16.30;69.20;;;;;;5013993;28;20026;-38
2022/07/06 06:30:00;;;;;;;0.95;0.50;;;16.30;69.20;;;;;;5013851;28;20022;-37
2022/07/06 06:32:25;;;;;;;1.17;0.52;;;16.40;69.10;;;;;;5014321;28;20165;-38
2022/07/06 06:34:51;;;;;;;4.57;0.50;;;16.50;69.10;;;;;;5013950;28;20095;-38
2022/07/06 06:37:17;;;;;;;1.58;0.70;;;16.50;68.90;;;;;;5013851;28;20025;-38
2022/07/06 06:39:42;;;;;;;2.22;0.63;;;16.60;68.80;;;;;;5014125;28;20031;-38
2022/07/06 06:42:08;;;;;;;1.65;0.63;;;16.70;68.80;;;;;;5013793;28;20084;-37
2022/07/06 06:44:33;;;;;;;4.53;0.68;;;16.70;68.70;;;;;;5014567;28;20137;-38
2022/07/06 06:47:00;;;;;;;1.17;0.63;;;16.70;68.60;;;;;;5013680;28;20025;-37
2022/07/06 06:49:25;;;;;;;2.38;0.80;;;16.80;68.60;;;;;;5013639;28;20495;-37
2022/07/06 06:51:51;;;;;;;1.10;0.60;;;16.80;68.40;;;;;;5013707;28;20026;-37
2022/07/06 06:54:16;;;;;;;1.25;0.45;;;16.90;68.20;;;;;;5013460;28;20029;-42
2022/07/06 06:56:42;;;;;;;1.25;0.60;;;16.90;68.00;;;;;;5013649;28;20045;-38
2022/07/06 06:59:07;;;;;;;3.20;0.55;;;16.90;68.00;;;;;;5013104;28;20026;-38
2022/07/06 07:01:33;;;;;;;3.08;0.60;;;17.00;68.00;;;;;;5013652;28;20022;-38
2022/07/06 07:03:59;;;;;;;4.00;0.80;;;17.00;67.90;;;;;;5012104;28;20054;-39
2022/07/06 07:06:24;;;;;;;2.10;0.60;;;17.00;67.70;;;;;;5013681;28;20030;-42
2022/07/06 07:08:50;;;;;;;1.38;0.60;;;17.00;67.70;;;;;;5014036;28;20461;-39
2022/07/06 07:11:15;;;;;;;2.35;0.80;;;17.00;67.70;;;;;;5012428;28;20025;-38
2022/07/06 07:13:41;;;;;;;0.90;0.60;;;17.10;67.70;;;;;;5013722;28;20088;-39
2022/07/06 07:16:07;;;;;;;2.60;0.68;;;17.10;67.60;;;;;;5013675;28;20048;-38
2022/07/06 07:18:32;;;;;;;2.10;0.68;;;17.10;67.30;;;;;;5013852;28;20030;-38
2022/07/06 07:20:58;;;;;;;2.13;0.57;;;17.20;67.30;;;;;;5013366;28;20097;-39
2022/07/06 07:23:23;;;;;;;3.65;0.73;;;17.20;67.20;;;;;;5013787;28;20111;-44
2022/07/06 07:25:49;;;;;;;2.03;0.60;;;17.20;67.10;;;;;;5013351;28;20101;-37
2022/07/06 07:28:15;;;;;;;2.22;0.80;;;17.30;67.20;;;;;;5013022;28;20026;-37
2022/07/06 07:30:40;;;;;;;1.02;0.45;;;17.30;67.00;;;;;;5013156;28;20030;-38
2022/07/06 07:33:06;;;;;;;0.95;0.40;;;17.30;66.80;;;;;;5013048;28;20026;-37
2022/07/06 07:35:32;;;;;;;1.75;0.50;;;17.40;66.80;;;;;;5013039;28;20025;-37
2022/07/06 07:37:57;;;;;;;2.10;0.65;;;17.40;66.40;;;;;;5011749;28;20030;-37
2022/07/06 07:40:23;;;;;;;2.78;0.43;;;17.50;66.10;;;;;;5012905;28;20176;-41
2022/07/06 07:42:49;;;;;;;3.17;0.57;;;17.50;65.70;;;;;;5013485;28;20034;-38
2022/07/06 07:45:14;;;;;;;1.67;0.55;;;17.50;65.60;;;;;;5012817;28;20088;-38
2022/07/06 07:47:40;;;;;;;1.95;0.47;;;17.60;65.50;;;;;;5012827;28;20072;-39
2022/07/06 07:50:06;;;;;;;1.20;0.35;;;17.70;65.40;;;;;;5013369;28;20033;-37
2022/07/06 07:52:32;;;;;;;2.35;0.38;;;17.80;65.00;;;;;;5013104;28;20477;-38
2022/07/06 07:54:57;;;;;;;0.40;0.35;;;17.90;64.40;;;;;;5012795;28;20073;-37
2022/07/06 07:57:23;;;;;;;0.75;0.35;;;18.00;64.10;;;;;;5012943;28;20069;-37
2022/07/06 07:59:49;;;;;;;2.90;0.47;;;18.10;63.70;;;;;;5011624;28;20025;-38
2022/07/06 08:02:14;;;;;;;1.67;0.40;;;18.20;62.70;;;;;;5012763;28;20046;-39
2022/07/06 08:04:40;;;;;;;1.80;0.50;;;18.40;62.30;;;;;;5012551;28;20512;-39
2022/07/06 08:07:06;;;;;;;1.63;0.45;;;18.50;61.70;;;;;;5012682;28;20096;-39
2022/07/06 08:09:32;;;;;;;1.20;0.50;;;18.60;61.10;;;;;;5014159;28;20034;-39
2022/07/06 08:11:58;;;;;;;3.42;0.63;;;18.60;59.70;;;;;;5017011;28;20032;-38
2022/07/06 08:14:24;;;;;;;2.60;0.45;;;18.60;59.20;;;;;;5016759;28;20093;-39
2022/07/06 08:16:50;;;;;;;0.43;0.30;;;18.60;58.80;;;;;;5015196;28;20441;-39
2022/07/06 08:19:16;;;;;;;0.30;0.20;;;18.60;58.90;;;;;;5016543;28;20535;-39
2022/07/06 08:21:42;;;;;;;1.65;0.50;;;18.60;58.70;;;;;;5017150;28;20396;-40
2022/07/06 08:24:08;;;;;;;5.85;0.40;;;18.70;58.10;;;;;;5015091;28;20042;-40
2022/07/06 08:26:34;;;;;;;3.13;0.43;;;18.70;57.90;;;;;;5016490;28;20489;-43
2022/07/06 08:29:00;;;;;;;0.70;0.30;;;18.70;57.40;;;;;;5017001;28;20029;-38
2022/07/06 08:31:27;;;;;;;0.90;0.40;;;18.70;57.30;;;;;;5016690;28;20104;-39
2022/07/06 08:33:53;;;;;;;0.55;0.22;;;18.70;57.20;;;;;;5016876;28;20088;-37
2022/07/06 08:36:20;;;;;;;1.20;0.40;;;18.80;57.00;;;;;;5016834;28;20093;-39
2022/07/06 08:38:46;;;;;;;2.03;0.50;;;18.80;56.90;;;;;;5017000;28;20376;-40
2022/07/06 08:41:14;;;;;;;0.55;0.32;;;18.90;56.50;;;;;;5016731;28;20115;-39
2022/07/06 08:43:40;;;;;;;2.15;0.50;;;19.00;56.40;;;;;;5016211;28;20030;-39
2022/07/06 08:46:07;;;;;;;0.73;0.52;;;19.10;56.50;;;;;;5016194;28;20072;-39
2022/07/06 08:48:36;;;;;;;1.02;0.30;;;19.30;56.10;;;;;;5016545;28;20045;-39
2022/07/06 08:51:06;;;;;;;0.98;0.40;;;19.40;54.70;;;;;;5016127;28;20487;-38
2022/07/06 08:53:32;;;;;;;0.43;0.20;;;19.40;53.30;;;;;;5016394;28;20045;-38
2022/07/06 08:55:58;;;;;;;0.43;0.20;;;19.30;53.30;;;;;;5015012;28;20014;-37
2022/07/06 08:58:26;;;;;;;0.95;0.30;;;19.20;53.20;;;;;;5016278;28;20022;-38
2022/07/06 09:00:52;;;;;;;1.33;0.40;;;19.20;53.40;;;;;;5016213;28;20373;-38
2022/07/06 09:03:19;;;;;;;2.42;0.60;;;19.20;53.50;;;;;;5016165;28;20041;-38
2022/07/06 09:05:46;;;;;;;0.88;0.30;;;19.30;53.40;;;;;;5015879;28;20030;-37
2022/07/06 09:08:12;;;;;;;0.25;0.20;;;19.50;53.30;;;;;;5016036;28;20026;-38
2022/07/06 09:10:38;;;;;;;1.15;0.38;;;19.70;53.10;;;;;;5016055;28;20531;-38
2022/07/06 09:13:06;;;;;;;0.32;0.30;;;19.80;52.20;;;;;;5015583;28;20025;-37
2022/07/06 09:15:36;;;;;;;0.45;0.20;;;19.90;52.90;;;;;;5015739;28;20527;-37
2022/07/06 09:18:04;;;;;;;0.73;0.28;;;19.90;51.70;;;;;;5015549;28;20472;-37
2022/07/06 09:20:29;;;;;;;0.40;0.40;;;19.90;51.60;;;;;;5015688;28;20473;-38
2022/07/06 09:23:00;;;;;;;1.55;0.50;;;19.90;51.70;;;;;;5014980;28;20105;-36
2022/07/06 09:25:26;;;;;;;0.40;0.30;;;19.90;51.50;;;;;;5015714;28;20465;-38
2022/07/06 09:27:54;;;;;;;0.90;0.25;;;20.00;51.30;;;;;;5016155;28;20025;-38
2022/07/06 09:30:21;;;;;;;0.40;0.20;;;20.00;51.40;;;;;;5015287;28;20103;-38
2022/07/06 09:32:50;;;;;;;1.10;0.20;;;20.00;51.20;;;;;;5015501;28;20080;-38
2022/07/06 09:35:54;;;;;;;1.45;0.40;;;20.00;51.20;;;;;;5015674;28;20028;-38
2022/07/06 09:38:19;;;;;;;;;;;20.00;51.00;;;;;;5014967;28;20033;-38
2022/07/06 09:40:45;;;;;;;0.90;0.30;;;19.90;51.30;;;;;;5015218;28;20265;-40
2022/07/06 09:43:18;;;;;;;0.43;0.22;;;20.00;51.30;;;;;;5015418;28;20469;-39
2022/07/06 09:45:49;;;;;;;1.00;0.30;;;20.10;50.90;;;;;;5015056;28;20018;-33
2022/07/06 09:48:23;;;;;;;2.28;0.40;;;20.10;50.90;;;;;;5015015;28;20026;-29
2022/07/06 09:50:51;;;;;;;;;;;20.20;51.00;;;;;;5015282;28;20017;-30
2022/07/06 09:53:17;;;;;;;0.85;0.30;;;20.30;50.90;;;;;;5014978;28;19909;-29
2022/07/06 09:55:48;;;;;;;1.67;0.40;;;20.30;51.70;;;;;;5014692;28;20048;-32
2022/07/06 09:58:15;;;;;;;0.70;0.38;;;20.50;51.00;;;;;;5013481;28;20080;-29
2022/07/06 10:00:44;;;;;;;0.50;0.25;;;20.60;50.60;;;;;;5014698;28;20028;-31
2022/07/06 10:03:11;;;;;;;0.70;0.40;;;20.70;50.50;;;;;;5014233;28;20034;-32
2022/07/06 10:05:38;;;;;;;3.05;0.43;;;20.70;50.40;;;;;;5014491;28;20041;-30
2022/07/06 10:08:05;;;;;;;1.50;0.40;;;20.80;50.20;;;;;;5014251;28;20033;-29
2022/07/06 10:10:32;;;;;;;2.70;0.50;;;20.80;50.20;;;;;;5013046;28;20025;-30
2022/07/06 10:12:59;;;;;;;0.88;0.32;;;20.80;50.30;;;;;;5014225;28;20018;-31
2022/07/06 10:15:27;;;;;;;1.17;0.35;;;20.90;50.20;;;;;;5014334;28;20413;-28
2022/07/06 10:17:54;;;;;;;0.68;0.20;;;21.00;50.00;;;;;;5014149;28;20470;-30
2022/07/06 10:20:21;;;;;;;0.75;0.20;;;21.00;49.60;;;;;;5014597;28;20076;-31
2022/07/06 10:22:50;;;;;;;0.50;0.30;;;21.00;49.70;;;;;;5014172;28;20033;-33
2022/07/06 10:25:17;;;;;;;0.20;0.20;;;21.00;49.40;;;;;;5014017;28;20034;-30
2022/07/06 10:27:45;;;;;;;2.30;0.30;;;21.00;49.30;;;;;;5014058;28;20037;-29
2022/07/06 10:30:10;;;;;;;0.93;0.20;;;21.00;49.30;;;;;;5013914;28;20076;-31
2022/07/06 10:32:39;;;;;;;0.10;0.10;;;21.10;49.00;;;;;;5013240;28;20050;-36
2022/07/06 10:35:06;;;;;;;3.03;0.30;;;21.10;49.00;;;;;;5013589;28;20551;-35
2022/07/06 10:37:33;;;;;;;0.65;0.20;;;21.10;49.10;;;;;;5014335;28;20029;-30
2022/07/06 10:42:54;;;;;;;2.55;0.40;;;21.30;48.70;;;;;;5013913;28;20507;-37
2022/07/06 10:45:45;;;;;;;0.52;0.25;;;21.30;48.50;;;;;;5014105;28;20028;-33
2022/07/06 10:48:11;;;;;;;0.47;0.20;;;21.30;48.20;;;;;;5012442;28;20038;-30
2022/07/06 10:50:38;;;;;;;0.80;0.38;;;21.40;48.20;;;;;;5013800;28;20056;-36
2022/07/06 10:53:11;;;;;;;1.02;0.30;;;21.40;47.80;;;;;;5013730;28;20024;-36
2022/07/06 10:55:39;;;;;;;0.77;0.22;;;21.40;47.60;;;;;;5012383;28;20029;-31
2022/07/06 10:58:05;;;;;;;1.15;0.20;;;21.40;47.30;;;;;;5012457;28;20029;-30
2022/07/06 11:00:56;;;;;;;3.72;0.30;;;21.30;47.00;;;;;;5013671;28;20113;-29
2022/07/06 11:03:42;;;;;;;0.60;0.30;;;21.30;47.20;;;;;;5013949;28;20046;-30
2022/07/06 11:06:24;;;;;;;0.85;0.20;;;21.40;47.50;;;;;;5014167;28;20041;-31
2022/07/06 11:09:00;;;;;;;0.60;0.20;;;21.60;46.80;;;;;;5014182;28;20022;-32
2022/07/06 11:11:34;;;;;;;1.58;0.40;;;21.60;47.30;;;;;;5013823;28;20473;-30
2022/07/06 11:14:09;;;;;;;2.35;0.35;;;21.60;47.50;;;;;;5013574;28;20091;-28
2022/07/06 11:16:46;;;;;;;2.45;0.40;;;21.60;47.70;;;;;;5013314;28;20030;-29
2022/07/06 11:19:21;;;;;;;0.57;0.30;;;21.50;47.70;;;;;;5013265;28;20041;-29
2022/07/06 11:21:49;;;;;;;2.05;0.40;;;21.40;48.00;;;;;;5013517;28;20116;-31
2022/07/06 11:24:17;;;;;;;1.00;0.30;;;21.40;48.00;;;;;;5013489;28;20436;-28
2022/07/06 11:26:48;;;;;;;0.65;0.25;;;21.50;47.90;;;;;;5013545;28;20496;-30
2022/07/06 11:29:17;;;;;;;1.65;0.38;;;21.70;47.80;;;;;;5013166;28;20200;-32
2022/07/06 11:31:45;;;;;;;0.68;0.43;;;21.90;47.80;;;;;;5012051;28;20046;-29
2022/07/06 11:34:14;;;;;;;4.82;0.60;;;21.90;47.60;;;;;;5013176;28;20025;-30
2022/07/06 11:36:40;;;;;;;1.65;0.50;;;21.90;47.50;;;;;;5013367;28;20385;-33
2022/07/06 11:39:06;;;;;;;1.95;0.50;;;21.90;47.80;;;;;;5013013;28;20421;-31
2022/07/06 11:41:32;;;;;;;1.02;0.32;;;22.00;47.90;;;;;;5012951;28;20331;-31
2022/07/06 11:43:58;;;;;;;1.52;0.35;;;22.10;47.70;;;;;;5012638;28;20057;-34
2022/07/06 11:46:25;;;;;;;0.93;0.43;;;22.20;47.40;;;;;;5013008;28;20440;-29
2022/07/06 11:49:11;;;;;;;1.63;0.57;;;22.10;47.40;;;;;;5013154;28;20018;-30
2022/07/06 11:51:39;;;;;;;1.17;0.40;;;22.10;47.50;;;;;;5012717;28;20042;-29
2022/07/06 11:54:11;;;;;;;0.68;0.47;;;22.10;47.70;;;;;;5013073;28;20010;-29
2022/07/06 11:56:37;;;;;;;1.40;0.57;;;22.10;47.70;;;;;;5013116;28;20058;-33
2022/07/06 11:59:03;;;;;;;2.60;0.75;;;22.10;47.60;;;;;;5012845;28;20102;-29
2022/07/06 12:01:33;;;;;;;1.58;0.40;;;22.20;48.30;;;;;;5013103;28;20389;-30
2022/07/06 12:04:00;;;;;;;1.48;0.30;;;22.30;47.60;;;;;;5012789;28;20042;-30
2022/07/06 12:06:27;;;;;;;0.90;0.50;;;22.40;47.50;;;;;;5012739;28;20429;-29
2022/07/06 12:08:57;;;;;;;0.98;0.30;;;22.50;47.30;;;;;;5013716;28;20068;-30
2022/07/06 12:11:25;;;;;;;0.80;0.47;;;22.50;47.20;;;;;;5013292;28;20030;-31
2022/07/06 12:13:51;;;;;;;1.48;0.50;;;22.60;47.00;;;;;;5013040;28;20076;-31
2022/07/06 12:16:17;;;;;;;0.63;0.30;;;22.70;46.90;;;;;;5012690;28;20022;-30
2022/07/06 12:18:45;;;;;;;1.73;0.40;;;22.80;46.80;;;;;;5012721;28;20113;-29
2022/07/06 12:21:14;;;;;;;0.70;0.30;;;22.80;46.70;;;;;;5011234;28;20080;-27
2022/07/06 12:23:44;;;;;;;1.02;0.52;;;22.70;47.00;;;;;;5011264;28;20468;-30
2022/07/06 12:26:10;;;;;;;2.50;0.60;;;22.50;46.90;;;;;;5012445;28;20022;-31
2022/07/06 12:28:36;;;;;;;1.27;0.40;;;22.50;46.90;;;;;;5012675;28;20384;-32
2022/07/06 12:31:02;;;;;;;1.10;0.50;;;22.50;47.00;;;;;;5012746;28;20022;-28
2022/07/06 12:33:27;;;;;;;1.35;0.40;;;22.50;47.20;;;;;;5012354;28;20028;-34
2022/07/06 12:35:54;;;;;;;3.17;0.50;;;22.70;47.20;;;;;;5012533;28;20018;-33
2022/07/06 12:38:26;;;;;;;1.10;0.63;;;22.90;46.90;;;;;;5013408;28;20029;-28
2022/07/06 12:40:53;;;;;;;3.20;0.60;;;22.90;46.60;;;;;;5013045;28;20032;-28
2022/07/06 12:43:40;;;;;;;2.95;0.57;;;23.00;46.70;;;;;;5012306;28;20022;-32
2022/07/06 12:46:33;;;;;;;1.13;0.50;;;23.00;46.70;;;;;;5012653;28;20034;-28
2022/07/06 12:49:00;;;;;;;1.15;0.47;;;23.00;46.80;;;;;;5012595;28;20029;-28
2022/07/06 12:51:26;;;;;;;2.05;0.50;;;23.00;46.60;;;;;;5012668;28;20022;-31
2022/07/06 12:53:52;;;;;;;1.25;0.60;;;23.20;46.80;;;;;;5012488;28;20026;-28
2022/07/06 12:56:18;;;;;;;2.05;0.35;;;23.30;46.40;;;;;;5013011;28;20172;-28
2022/07/06 12:59:00;;;;;;;1.90;0.40;;;23.30;46.30;;;;;;5016103;28;20053;-39